createdAt,value
2018-07-03T00:01:05.044Z,17.50
2018-07-03T00:03:33.920Z,17.50
2018-07-03T00:06:02.815Z,17.40
2018-07-03T00:08:31.640Z,17.40
2018-07-03T00:11:00.668Z,17.30
2018-07-03T00:13:29.508Z,17.20
2018-07-03T00:15:58.340Z,17.10
2018-07-03T00:18:27.139Z,16.90
2018-07-03T00:20:55.968Z,16.90
2018-07-03T00:23:24.897Z,16.90
2018-07-03T00:25:53.669Z,16.90
2018-07-03T00:28:22.657Z,16.80
2018-07-03T00:30:51.611Z,16.70
2018-07-03T00:33:20.425Z,16.70
2018-07-03T00:35:49.199Z,16.70
2018-07-03T00:38:18.189Z,16.70
2018-07-03T00:40:47.063Z,16.70
2018-07-03T00:43:15.861Z,16.70
2018-07-03T00:45:44.969Z,16.70
2018-07-03T00:48:13.884Z,16.80
2018-07-03T00:50:42.732Z,16.80
2018-07-03T00:53:11.874Z,16.70
2018-07-03T00:55:50.804Z,16.70
2018-07-03T00:58:19.829Z,16.70
2018-07-03T01:00:48.807Z,16.60
2018-07-03T01:03:17.605Z,16.50
2018-07-03T01:05:46.484Z,16.50
2018-07-03T01:08:15.313Z,16.40
2018-07-03T01:10:44.115Z,16.40
2018-07-03T01:13:12.943Z,16.40
2018-07-03T01:15:42.957Z,16.40
2018-07-03T01:18:11.672Z,16.30
2018-07-03T01:20:40.578Z,16.30
2018-07-03T01:23:09.441Z,16.30
2018-07-03T01:25:38.339Z,16.20
2018-07-03T01:28:07.566Z,16.20
2018-07-03T01:30:36.477Z,16.20
2018-07-03T01:33:05.761Z,16.20
2018-07-03T01:35:34.545Z,16.20
2018-07-03T01:38:03.432Z,16.10
2018-07-03T01:40:32.219Z,16.10
2018-07-03T01:43:01.043Z,16.00
2018-07-03T01:45:29.872Z,16.00
2018-07-03T01:47:58.641Z,16.00
2018-07-03T01:50:27.691Z,15.90
2018-07-03T01:52:56.657Z,15.90
2018-07-03T01:55:25.412Z,15.90
2018-07-03T01:57:54.477Z,15.90
2018-07-03T02:00:23.430Z,16.00
2018-07-03T02:02:52.215Z,15.90
2018-07-03T02:05:21.053Z,15.90
2018-07-03T02:07:52.574Z,15.90
2018-07-03T02:10:22.627Z,15.90
2018-07-03T02:12:51.446Z,15.80
2018-07-03T02:15:20.238Z,15.90
2018-07-03T02:17:49.440Z,15.80
2018-07-03T02:20:18.318Z,15.80
2018-07-03T02:22:47.296Z,15.80
2018-07-03T02:25:16.392Z,15.80
2018-07-03T02:27:56.847Z,15.70
2018-07-03T02:30:26.408Z,15.80
2018-07-03T02:32:55.477Z,15.70
2018-07-03T02:35:24.292Z,15.70
2018-07-03T02:38:06.218Z,15.60
2018-07-03T02:40:35.260Z,15.60
2018-07-03T02:43:04.218Z,15.50
2018-07-03T02:48:01.653Z,15.40
2018-07-03T02:50:30.719Z,15.30
2018-07-03T02:53:00.012Z,15.20
2018-07-03T02:55:28.875Z,15.10
2018-07-03T02:57:57.928Z,15.00
2018-07-03T03:00:26.822Z,14.90
2018-07-03T03:02:55.759Z,14.80
2018-07-03T03:05:24.730Z,14.70
2018-07-03T03:07:53.677Z,14.70
2018-07-03T03:10:23.714Z,14.50
2018-07-03T03:12:52.630Z,14.50
2018-07-03T03:15:21.744Z,14.40
2018-07-03T03:17:50.628Z,14.30
2018-07-03T03:20:20.041Z,14.10
2018-07-03T03:22:48.978Z,14.10
2018-07-03T03:25:17.962Z,13.90
2018-07-03T03:27:46.938Z,13.80
2018-07-03T03:30:15.854Z,13.80
2018-07-03T03:32:44.974Z,13.70
2018-07-03T03:35:13.962Z,13.70
2018-07-03T03:37:43.592Z,13.60
2018-07-03T03:40:12.568Z,13.60
2018-07-03T03:42:41.554Z,13.50
2018-07-03T03:45:10.576Z,13.50
2018-07-03T03:47:39.488Z,13.50
2018-07-03T03:52:36.780Z,13.30
2018-07-03T03:55:06.147Z,13.30
2018-07-03T03:57:35.856Z,13.20
2018-07-03T04:00:06.081Z,13.30
2018-07-03T04:02:35.142Z,13.20
2018-07-03T04:05:04.017Z,13.30
2018-07-03T04:07:32.931Z,13.30
2018-07-03T04:10:01.927Z,13.40
2018-07-03T04:12:31.208Z,13.50
2018-07-03T04:15:00.019Z,13.50
2018-07-03T04:17:29.000Z,13.60
2018-07-03T04:19:58.154Z,13.60
2018-07-03T04:22:27.138Z,13.70
2018-07-03T04:24:55.984Z,13.80
2018-07-03T04:27:24.970Z,13.70
2018-07-03T04:29:53.962Z,13.90
2018-07-03T04:32:22.884Z,14.00
2018-07-03T04:34:51.775Z,14.10
2018-07-03T04:37:20.655Z,14.20
2018-07-03T04:39:49.562Z,14.30
2018-07-03T04:42:18.572Z,14.50
2018-07-03T04:44:47.406Z,14.70
2018-07-03T04:47:16.353Z,14.80
2018-07-03T04:52:13.689Z,16.20
2018-07-03T04:54:43.009Z,17.40
2018-07-03T04:57:11.890Z,18.50
2018-07-03T04:59:40.756Z,19.30
2018-07-03T05:02:09.591Z,20.20
2018-07-03T05:07:07.089Z,20.70
2018-07-03T05:09:36.034Z,20.90
2018-07-03T05:12:05.078Z,21.60
2018-07-03T05:14:33.982Z,22.60
2018-07-03T05:17:03.020Z,23.40
2018-07-03T05:19:32.003Z,24.20
2018-07-03T05:22:00.826Z,25.10
2018-07-03T05:24:29.558Z,26.10
2018-07-03T05:26:58.384Z,27.00
2018-07-03T05:29:27.211Z,27.80
2018-07-03T05:31:56.043Z,28.30
2018-07-03T05:34:24.855Z,29.30
2018-07-03T05:36:53.790Z,30.30
2018-07-03T05:39:22.675Z,30.60
2018-07-03T05:41:57.557Z,30.70
2018-07-03T05:44:26.445Z,31.00
2018-07-03T05:46:55.304Z,31.10
2018-07-03T05:49:24.151Z,30.90
2018-07-03T05:51:53.239Z,31.50
2018-07-03T05:54:22.045Z,31.60
2018-07-03T05:56:50.985Z,30.80
2018-07-03T05:59:19.765Z,30.20
2018-07-03T06:01:48.718Z,30.40
2018-07-03T06:04:23.265Z,30.70
2018-07-03T06:06:52.105Z,30.80
2018-07-03T06:09:21.133Z,31.00
2018-07-03T06:11:49.969Z,31.60
2018-07-03T06:14:18.837Z,32.50
2018-07-03T06:16:47.817Z,33.20
2018-07-03T06:19:16.766Z,32.50
2018-07-03T06:21:45.626Z,31.20
2018-07-03T06:24:18.388Z,30.20
2018-07-03T06:26:47.265Z,30.00
2018-07-03T06:29:16.913Z,30.50
2018-07-03T06:31:46.047Z,30.20
2018-07-03T06:36:43.772Z,30.50
2018-07-03T06:39:15.645Z,30.10
2018-07-03T06:41:44.585Z,30.50
2018-07-03T06:44:13.524Z,30.50
2018-07-03T06:46:42.424Z,29.80
2018-07-03T06:49:11.461Z,29.10
2018-07-03T06:54:09.144Z,29.90
2018-07-03T06:56:38.022Z,30.00
2018-07-03T06:59:06.877Z,30.50
2018-07-03T07:01:35.663Z,30.60
2018-07-03T07:04:04.588Z,30.20
2018-07-03T07:09:02.682Z,28.60
2018-07-03T07:11:31.951Z,27.60
2018-07-03T07:14:00.941Z,26.90
2018-07-03T07:16:30.199Z,26.50
2018-07-03T07:23:56.034Z,25.60
2018-07-03T07:26:24.881Z,25.60
2018-07-03T07:28:54.006Z,25.40
2018-07-03T07:31:23.451Z,25.40
2018-07-03T07:33:52.638Z,25.10
2018-07-03T07:36:21.616Z,25.30
2018-07-03T07:38:50.555Z,25.10
2018-07-03T07:41:19.441Z,25.20
2018-07-03T07:43:48.202Z,24.90
2018-07-03T07:46:16.995Z,24.30
2018-07-03T07:48:46.018Z,24.20
2018-07-03T07:51:14.846Z,24.00
2018-07-03T07:53:43.749Z,24.20
2018-07-03T07:56:13.052Z,24.30
2018-07-03T07:58:42.188Z,24.60
2018-07-03T08:01:11.241Z,24.60
2018-07-03T08:03:40.211Z,24.60
2018-07-03T08:06:09.210Z,24.50
2018-07-03T08:08:38.151Z,24.70
2018-07-03T08:11:07.318Z,24.90
2018-07-03T08:13:37.599Z,25.10
2018-07-03T08:16:06.407Z,25.00
2018-07-03T08:18:35.371Z,24.90
2018-07-03T08:21:04.323Z,24.80
2018-07-03T08:23:33.171Z,24.70
2018-07-03T08:26:02.061Z,24.70
2018-07-03T08:28:30.949Z,24.40
2018-07-03T08:30:59.795Z,24.40
2018-07-03T08:33:28.855Z,24.70
2018-07-03T08:35:57.849Z,24.90
2018-07-03T08:38:26.785Z,25.00
2018-07-03T08:40:55.731Z,25.00
2018-07-03T08:43:24.568Z,25.00
2018-07-03T08:45:53.539Z,25.20
2018-07-03T08:48:22.348Z,25.30
2018-07-03T08:50:51.221Z,25.40
2018-07-03T08:53:20.004Z,25.50
2018-07-03T08:55:49.677Z,25.50
2018-07-03T08:58:18.599Z,25.60
2018-07-03T09:00:47.452Z,25.60
2018-07-03T09:03:16.769Z,25.60
2018-07-03T09:05:45.686Z,25.70
2018-07-03T09:08:14.768Z,25.80
2018-07-03T09:13:12.575Z,25.70
2018-07-03T09:15:41.493Z,25.80
2018-07-03T09:18:10.517Z,25.80
2018-07-03T09:20:39.281Z,25.60
2018-07-03T09:23:08.091Z,25.60
2018-07-03T09:25:37.054Z,25.80
2018-07-03T09:28:05.918Z,25.90
2018-07-03T09:30:34.921Z,25.70
2018-07-03T09:33:03.823Z,25.60
2018-07-03T09:35:32.642Z,25.60
2018-07-03T09:38:01.639Z,25.50
2018-07-03T09:40:30.653Z,25.50
2018-07-03T09:42:59.401Z,25.50
2018-07-03T09:45:28.295Z,25.60
2018-07-03T09:47:57.287Z,25.70
2018-07-03T09:50:26.737Z,25.50
2018-07-03T09:52:55.588Z,25.50
2018-07-03T09:55:24.456Z,25.50
2018-07-03T09:57:54.056Z,25.60
2018-07-03T10:00:28.126Z,25.60
2018-07-03T10:02:57.610Z,25.80
2018-07-03T10:05:26.465Z,25.90
2018-07-03T10:07:55.315Z,26.00
2018-07-03T10:10:25.103Z,26.00
2018-07-03T10:12:53.963Z,25.90
2018-07-03T10:15:22.919Z,25.80
2018-07-03T10:17:51.791Z,25.80
2018-07-03T10:20:20.720Z,26.00
2018-07-03T10:22:49.627Z,26.10
2018-07-03T10:25:18.603Z,26.30
2018-07-03T10:27:47.562Z,26.50
2018-07-03T10:30:16.376Z,26.30
2018-07-03T10:32:45.238Z,26.20
2018-07-03T10:35:14.095Z,26.20
2018-07-03T10:37:42.866Z,26.30
2018-07-03T10:40:11.670Z,26.10
2018-07-03T10:42:40.564Z,25.80
2018-07-03T10:45:09.493Z,25.80
2018-07-03T10:47:38.497Z,26.00
2018-07-03T10:50:07.394Z,26.20
2018-07-03T10:52:36.267Z,26.20
2018-07-03T10:55:05.534Z,26.40
2018-07-03T10:57:34.600Z,26.50
2018-07-03T11:00:03.394Z,26.60
2018-07-03T11:02:32.193Z,26.50
2018-07-03T11:05:00.991Z,26.50
2018-07-03T11:07:29.948Z,26.50
2018-07-03T11:09:58.857Z,26.50
2018-07-03T11:12:27.680Z,26.60
2018-07-03T11:14:56.630Z,26.70
2018-07-03T11:17:25.469Z,26.70
2018-07-03T11:19:54.925Z,26.70
2018-07-03T11:22:23.748Z,26.80
2018-07-03T11:24:52.640Z,26.90
2018-07-03T11:27:21.427Z,27.00
2018-07-03T11:29:50.406Z,26.90
2018-07-03T11:32:19.202Z,27.10
2018-07-03T11:34:48.022Z,27.90
2018-07-03T11:37:16.928Z,29.40
2018-07-03T11:39:45.694Z,31.10
2018-07-03T11:42:14.594Z,32.60
2018-07-03T11:44:43.501Z,33.40
2018-07-03T11:47:12.639Z,33.60
2018-07-03T11:49:41.706Z,33.90
2018-07-03T11:52:10.940Z,33.20
2018-07-03T11:54:39.721Z,32.50
2018-07-03T11:57:08.718Z,32.80
2018-07-03T11:59:37.972Z,33.50
2018-07-03T12:02:06.864Z,34.30
2018-07-03T12:04:35.708Z,34.40
2018-07-03T12:07:04.669Z,34.10
2018-07-03T12:09:33.440Z,33.50
2018-07-03T12:12:02.272Z,33.10
2018-07-03T12:14:31.100Z,32.90
2018-07-03T12:16:59.948Z,33.30
2018-07-03T12:19:28.893Z,34.60
2018-07-03T12:21:57.872Z,35.60
2018-07-03T12:24:26.788Z,36.10
2018-07-03T12:26:55.768Z,36.30
2018-07-03T12:29:24.664Z,37.60
2018-07-03T12:31:53.592Z,37.70
2018-07-03T12:34:22.464Z,36.90
2018-07-03T12:36:51.243Z,36.50
2018-07-03T12:39:20.363Z,36.50
2018-07-03T12:41:49.184Z,35.90
2018-07-03T12:44:18.294Z,36.20
2018-07-03T12:46:47.101Z,36.90
2018-07-03T12:49:16.313Z,37.20
2018-07-03T12:51:45.184Z,37.50
2018-07-03T12:54:14.094Z,37.60
2018-07-03T12:56:43.016Z,37.10
2018-07-03T12:59:11.802Z,36.70
2018-07-03T13:01:40.646Z,36.50
2018-07-03T13:04:09.608Z,36.00
2018-07-03T13:06:38.650Z,36.00
2018-07-03T13:09:09.618Z,36.50
2018-07-03T13:11:38.535Z,36.30
2018-07-03T13:14:07.612Z,35.20
2018-07-03T13:16:36.389Z,34.60
2018-07-03T13:19:05.166Z,34.40
2018-07-03T13:21:33.978Z,34.60
2018-07-03T13:24:02.900Z,34.70
2018-07-03T13:26:31.684Z,34.90
2018-07-03T13:29:00.435Z,34.60
2018-07-03T13:31:29.777Z,34.50
2018-07-03T13:33:58.466Z,34.70
2018-07-03T13:36:27.559Z,35.20
2018-07-03T13:38:56.397Z,35.20
2018-07-03T13:41:25.373Z,35.30
2018-07-03T13:43:54.330Z,35.20
2018-07-03T13:46:23.208Z,34.90
2018-07-03T13:48:52.216Z,35.00
2018-07-03T13:51:21.314Z,34.50
2018-07-03T13:53:50.086Z,34.60
2018-07-03T13:56:18.832Z,34.60
2018-07-03T13:58:48.087Z,34.60
2018-07-03T14:01:17.084Z,34.70
2018-07-03T14:03:45.960Z,35.20
2018-07-03T14:06:15.042Z,35.30
2018-07-03T14:08:43.923Z,35.00
2018-07-03T14:11:12.830Z,35.20
2018-07-03T14:13:41.918Z,35.10
2018-07-03T14:16:10.884Z,34.80
2018-07-03T14:18:39.726Z,35.40
2018-07-03T14:21:08.758Z,36.20
2018-07-03T14:23:37.720Z,36.60
2018-07-03T14:26:07.131Z,36.50
2018-07-03T14:28:36.052Z,36.20
2018-07-03T14:31:05.075Z,35.70
2018-07-03T14:33:33.958Z,35.30
2018-07-03T14:36:02.942Z,35.40
2018-07-03T14:38:31.760Z,35.90
2018-07-03T14:41:00.672Z,36.00
2018-07-03T14:43:29.674Z,36.50
2018-07-03T14:45:58.502Z,36.90
2018-07-03T14:48:27.632Z,36.90
2018-07-03T14:50:56.916Z,35.90
2018-07-03T14:53:25.812Z,35.20
2018-07-03T14:55:56.730Z,34.80
2018-07-03T14:58:25.684Z,34.20
2018-07-03T15:00:54.660Z,33.50
2018-07-03T15:03:23.865Z,33.40
2018-07-03T15:05:53.105Z,32.80
2018-07-03T15:08:22.278Z,33.00
2018-07-03T15:10:51.164Z,33.00
2018-07-03T15:13:20.019Z,33.20
2018-07-03T15:15:48.789Z,33.20
2018-07-03T15:18:17.618Z,32.40
2018-07-03T15:20:46.519Z,32.00
2018-07-03T15:23:15.368Z,31.70
2018-07-03T15:25:44.717Z,31.70
2018-07-03T15:28:13.763Z,31.80
2018-07-03T15:30:42.816Z,32.00
2018-07-03T15:33:11.691Z,31.80
2018-07-03T15:35:40.680Z,31.60
2018-07-03T15:38:09.464Z,31.70
2018-07-03T15:40:38.428Z,31.70
2018-07-03T15:43:07.207Z,31.60
2018-07-03T15:45:36.142Z,31.50
2018-07-03T15:48:05.600Z,31.50
2018-07-03T15:50:34.440Z,31.40
2018-07-03T15:55:31.872Z,30.90
2018-07-03T15:58:00.697Z,30.70
2018-07-03T16:00:29.701Z,30.60
2018-07-03T16:03:09.756Z,30.60
2018-07-03T16:05:57.259Z,30.60
2018-07-03T16:08:44.344Z,30.30
2018-07-03T16:11:13.566Z,30.10
2018-07-03T16:13:43.468Z,29.90
2018-07-03T16:16:12.277Z,29.80
2018-07-03T16:18:41.172Z,29.50
2018-07-03T16:21:10.041Z,29.20
2018-07-03T16:23:39.182Z,29.00
2018-07-03T16:26:08.945Z,29.20
2018-07-03T16:28:38.450Z,29.20
2018-07-03T16:31:08.028Z,29.40
2018-07-03T16:33:37.880Z,29.50
2018-07-03T16:36:06.923Z,29.60
2018-07-03T16:38:35.876Z,29.60
2018-07-03T16:41:05.223Z,29.60
2018-07-03T16:43:34.236Z,29.60
2018-07-03T16:46:03.680Z,29.50
2018-07-03T16:48:32.576Z,29.40
2018-07-03T16:51:01.537Z,29.30
2018-07-03T16:53:30.853Z,29.20
2018-07-03T16:56:00.216Z,29.10
2018-07-03T16:58:29.044Z,29.00
2018-07-03T17:00:58.943Z,29.00
2018-07-03T17:03:28.172Z,28.80
2018-07-03T17:05:57.613Z,28.80
2018-07-03T17:08:26.598Z,28.80
2018-07-03T17:10:55.868Z,28.90
2018-07-03T17:13:26.270Z,28.80
2018-07-03T17:15:55.606Z,28.70
2018-07-03T17:18:24.916Z,28.60
2018-07-03T17:20:54.090Z,28.60
2018-07-03T17:23:23.214Z,28.60
2018-07-03T17:26:34.182Z,28.50
2018-07-03T17:29:05.288Z,28.50
2018-07-03T17:31:34.460Z,28.40
2018-07-03T17:34:03.910Z,28.30
2018-07-03T17:36:32.860Z,28.20
2018-07-03T17:39:09.998Z,28.20
2018-07-03T17:41:49.869Z,28.10
2018-07-03T17:44:33.190Z,28.10
2018-07-03T17:47:02.296Z,28.10
2018-07-03T17:49:31.191Z,28.00
2018-07-03T17:52:12.356Z,28.00
2018-07-03T17:57:09.597Z,27.80
2018-07-03T17:59:38.651Z,27.70
2018-07-03T18:02:09.603Z,27.70
2018-07-03T18:04:38.595Z,27.70
2018-07-03T18:07:07.557Z,27.60
2018-07-03T18:09:36.442Z,27.50
2018-07-03T18:12:05.531Z,27.40
2018-07-03T18:14:34.489Z,27.40
2018-07-03T18:17:03.617Z,27.30
2018-07-03T18:19:37.740Z,27.20
2018-07-03T18:22:06.659Z,27.10
2018-07-03T18:24:35.513Z,27.00
2018-07-03T18:27:10.327Z,27.00
2018-07-03T18:29:39.255Z,27.00
2018-07-03T18:32:08.114Z,26.90
2018-07-03T18:34:36.961Z,26.80
2018-07-03T18:37:05.959Z,26.80
2018-07-03T18:39:34.738Z,26.70
2018-07-03T18:42:03.749Z,26.60
2018-07-03T18:44:32.529Z,26.60
2018-07-03T18:47:01.369Z,26.50
2018-07-03T18:49:30.308Z,26.60
2018-07-03T18:52:15.268Z,26.60
2018-07-03T18:54:44.145Z,26.60
2018-07-03T18:57:13.032Z,26.40
2018-07-03T18:59:41.849Z,26.40
2018-07-03T19:02:10.733Z,26.40
2018-07-03T19:04:39.953Z,26.30
2018-07-03T19:07:09.088Z,26.20
2018-07-03T19:09:42.144Z,26.00
2018-07-03T19:12:11.007Z,25.90
2018-07-03T19:14:39.824Z,25.80
2018-07-03T19:17:08.997Z,25.70
2018-07-03T19:19:38.034Z,25.60
2018-07-03T19:22:07.059Z,25.40
2018-07-03T19:24:35.882Z,25.20
2018-07-03T19:27:04.860Z,25.00
2018-07-03T19:29:33.634Z,24.80
2018-07-03T19:32:02.347Z,24.60
2018-07-03T19:34:32.191Z,24.40
2018-07-03T19:37:01.356Z,24.20
2018-07-03T19:39:30.425Z,24.10
2018-07-03T19:41:59.260Z,23.90
2018-07-03T19:44:29.301Z,23.80
2018-07-03T19:46:58.109Z,23.60
2018-07-03T19:49:26.981Z,23.50
2018-07-03T19:51:55.975Z,23.40
2018-07-03T19:54:24.894Z,23.30
2018-07-03T19:56:53.813Z,23.10
2018-07-03T19:59:22.815Z,23.10
2018-07-03T20:01:51.856Z,22.90
2018-07-03T20:04:21.097Z,22.80
2018-07-03T20:06:50.060Z,22.70
2018-07-03T20:09:18.903Z,22.60
2018-07-03T20:11:47.856Z,22.50
2018-07-03T20:14:16.732Z,22.40
2018-07-03T20:16:45.621Z,22.30
2018-07-03T20:19:15.844Z,22.20
2018-07-03T20:21:46.246Z,22.10
2018-07-03T20:26:57.117Z,22.00
2018-07-03T20:29:25.994Z,21.90
2018-07-03T20:31:54.995Z,21.70
2018-07-03T20:34:24.010Z,21.60
2018-07-03T20:36:52.824Z,21.60
2018-07-03T20:39:21.691Z,21.50
2018-07-03T20:41:50.659Z,21.40
2018-07-03T20:44:19.872Z,21.30
2018-07-03T20:46:48.926Z,21.30
2018-07-03T20:49:17.683Z,21.20
2018-07-03T20:51:46.552Z,21.10
2018-07-03T20:54:15.480Z,21.00
2018-07-03T20:56:44.367Z,20.90
2018-07-03T20:59:14.327Z,20.80
2018-07-03T21:01:43.533Z,20.80
2018-07-03T21:04:12.470Z,20.70
2018-07-03T21:06:41.092Z,20.60
2018-07-03T21:09:10.662Z,20.60
2018-07-03T21:11:39.556Z,20.50
2018-07-03T21:14:08.543Z,20.40
2018-07-03T21:16:37.395Z,20.40
2018-07-03T21:19:06.561Z,20.30
2018-07-03T21:21:35.395Z,20.30
2018-07-03T21:24:04.514Z,20.20
2018-07-03T21:26:33.513Z,20.20
2018-07-03T21:29:02.367Z,20.10
2018-07-03T21:31:31.554Z,20.00
2018-07-03T21:34:00.419Z,20.00
2018-07-03T21:36:29.353Z,19.90
2018-07-03T21:38:58.157Z,19.90
2018-07-03T21:41:27.170Z,19.80
2018-07-03T21:43:56.382Z,19.80
2018-07-03T21:46:25.370Z,19.70
2018-07-03T21:48:54.503Z,19.70
2018-07-03T21:51:23.383Z,19.60
2018-07-03T21:53:52.237Z,19.50
2018-07-03T21:56:21.097Z,19.50
2018-07-03T21:58:49.850Z,19.40
2018-07-03T22:01:18.857Z,19.30
2018-07-03T22:03:47.762Z,19.30
2018-07-03T22:06:16.607Z,19.20
2018-07-03T22:08:45.513Z,19.10
2018-07-03T22:11:14.454Z,19.10
2018-07-03T22:13:43.304Z,19.10
2018-07-03T22:16:12.170Z,19.10
2018-07-03T22:18:41.103Z,19.00
2018-07-03T22:21:09.975Z,19.00
2018-07-03T22:23:38.823Z,19.00
2018-07-03T22:26:07.757Z,19.00
2018-07-03T22:28:37.068Z,18.90
2018-07-03T22:31:06.204Z,18.90
2018-07-03T22:33:35.211Z,18.80
2018-07-03T22:36:04.421Z,18.80
2018-07-03T22:38:33.345Z,18.80
2018-07-03T22:41:02.174Z,18.70
2018-07-03T22:43:31.032Z,18.70
2018-07-03T22:45:59.872Z,18.60
2018-07-03T22:48:28.796Z,18.60
2018-07-03T22:50:57.608Z,18.50
2018-07-03T22:53:26.350Z,18.40
2018-07-03T22:55:55.192Z,18.30
2018-07-03T22:58:24.080Z,18.20
2018-07-03T23:00:53.002Z,18.20
2018-07-03T23:03:21.888Z,18.10
2018-07-03T23:05:50.761Z,18.10
2018-07-03T23:08:20.045Z,18.00
2018-07-03T23:10:48.933Z,18.00
2018-07-03T23:13:17.874Z,17.90
2018-07-03T23:15:46.685Z,17.90
2018-07-03T23:18:15.580Z,17.90
2018-07-03T23:20:44.489Z,17.80
2018-07-03T23:23:13.766Z,17.80
2018-07-03T23:25:42.620Z,17.80
2018-07-03T23:28:11.449Z,17.80
2018-07-03T23:30:40.210Z,17.70
2018-07-03T23:33:09.372Z,17.70
2018-07-03T23:35:38.205Z,17.60
2018-07-03T23:38:07.272Z,17.50
2018-07-03T23:43:04.719Z,17.50
2018-07-03T23:45:40.068Z,17.40
2018-07-03T23:48:19.842Z,17.40
2018-07-03T23:50:59.896Z,17.40
2018-07-03T23:53:39.912Z,17.40
2018-07-03T23:56:19.890Z,17.40
2018-07-03T23:59:00.086Z,17.30
